createdAt,value
2022-10-23T00:00:56.799Z,82.95
2022-10-23T00:03:23.340Z,83.06
2022-10-23T00:05:49.819Z,83.14
2022-10-23T00:08:16.288Z,83.23
2022-10-23T00:10:43.650Z,83.27
2022-10-23T00:13:10.144Z,83.37
2022-10-23T00:15:36.935Z,83.29
2022-10-23T00:18:04.545Z,83.05
2022-10-23T00:20:30.987Z,83.19
2022-10-23T00:22:57.407Z,82.76
2022-10-23T00:25:23.837Z,83.24
2022-10-23T00:27:50.278Z,82.95
2022-10-23T00:30:16.683Z,83.02
2022-10-23T00:32:43.128Z,82.93
2022-10-23T00:35:09.569Z,82.85
2022-10-23T00:37:36.024Z,83.25
2022-10-23T00:40:02.449Z,82.82
2022-10-23T00:42:28.933Z,82.81
2022-10-23T00:44:56.184Z,83.14
2022-10-23T00:47:22.687Z,82.94
2022-10-23T00:49:49.723Z,82.82
2022-10-23T00:52:16.783Z,83.00
2022-10-23T00:54:43.904Z,82.57
2022-10-23T00:57:15.641Z,82.54
2022-10-23T00:59:42.376Z,82.80
2022-10-23T01:02:09.343Z,82.56
2022-10-23T01:04:37.232Z,82.50
2022-10-23T01:07:13.075Z,82.06
2022-10-23T01:10:11.372Z,82.05
2022-10-23T01:13:08.256Z,81.98
2022-10-23T01:15:43.219Z,81.72
2022-10-23T01:18:27.662Z,82.08
2022-10-23T01:21:00.513Z,81.77
2022-10-23T01:24:04.422Z,81.60
2022-10-23T01:27:02.169Z,81.56
2022-10-23T01:29:58.707Z,81.72
2022-10-23T01:32:42.782Z,81.55
2022-10-23T01:35:14.469Z,81.93
2022-10-23T01:37:48.831Z,81.97
2022-10-23T01:40:27.354Z,82.03
2022-10-23T01:42:58.353Z,82.08
2022-10-23T01:45:52.944Z,82.09
2022-10-23T01:48:28.279Z,82.13
2022-10-23T01:51:01.507Z,82.63
2022-10-23T01:53:31.727Z,81.97
2022-10-23T01:56:05.560Z,82.62
2022-10-23T01:58:34.415Z,82.36
2022-10-23T02:01:05.661Z,82.48
2022-10-23T02:03:37.284Z,82.44
2022-10-23T02:06:07.472Z,82.56
2022-10-23T02:08:34.527Z,82.89
2022-10-23T02:11:09.105Z,82.96
2022-10-23T02:13:42.652Z,82.93
2022-10-23T02:16:51.638Z,83.43
2022-10-23T02:19:35.760Z,82.88
2022-10-23T02:22:10.690Z,82.66
2022-10-23T02:24:55.596Z,82.85
2022-10-23T02:27:28.781Z,82.75
2022-10-23T02:30:03.313Z,82.69
2022-10-23T02:32:30.930Z,82.92
2022-10-23T02:34:57.362Z,82.98
2022-10-23T02:37:23.946Z,82.94
2022-10-23T02:39:50.555Z,82.72
2022-10-23T02:42:39.154Z,83.21
2022-10-23T02:45:15.651Z,83.17
2022-10-23T02:47:54.197Z,83.13
2022-10-23T02:50:29.820Z,82.54
2022-10-23T02:53:11.386Z,82.94
2022-10-23T02:55:40.767Z,83.07
2022-10-23T02:58:27.463Z,82.66
2022-10-23T03:01:17.108Z,83.00
2022-10-23T03:04:04.938Z,83.29
2022-10-23T03:06:32.695Z,82.99
2022-10-23T03:09:05.224Z,83.18
2022-10-23T03:11:32.009Z,83.06
2022-10-23T03:13:58.653Z,82.97
2022-10-23T03:16:25.304Z,83.03
2022-10-23T03:18:54.537Z,82.76
2022-10-23T03:21:21.225Z,82.97
2022-10-23T03:23:51.829Z,83.06
2022-10-23T03:26:24.333Z,83.10
2022-10-23T03:28:50.817Z,83.24
2022-10-23T03:31:20.191Z,83.35
2022-10-23T03:33:49.464Z,82.92
2022-10-23T03:36:15.998Z,83.27
2022-10-23T03:38:43.910Z,82.97
2022-10-23T03:41:10.618Z,83.22
2022-10-23T03:43:37.081Z,83.46
2022-10-23T03:46:03.630Z,83.38
2022-10-23T03:48:30.079Z,83.36
2022-10-23T03:50:58.449Z,83.67
2022-10-23T03:53:25.080Z,83.42
2022-10-23T03:55:51.504Z,83.80
2022-10-23T03:58:18.106Z,83.59
2022-10-23T04:00:45.601Z,84.02
2022-10-23T04:03:12.133Z,83.68
2022-10-23T04:05:38.620Z,84.38
2022-10-23T04:08:05.175Z,84.00
2022-10-23T04:10:33.602Z,83.96
2022-10-23T04:13:00.518Z,84.00
2022-10-23T04:15:27.362Z,83.83
2022-10-23T04:17:54.625Z,84.17
2022-10-23T04:20:21.056Z,83.97
2022-10-23T04:22:47.529Z,84.15
2022-10-23T04:25:14.125Z,84.15
2022-10-23T04:27:40.757Z,84.27
2022-10-23T04:30:08.223Z,84.23
2022-10-23T04:32:34.867Z,84.42
2022-10-23T04:35:01.335Z,84.49
2022-10-23T04:37:30.203Z,84.39
2022-10-23T04:39:56.670Z,84.29
2022-10-23T04:42:23.147Z,84.24
2022-10-23T04:44:49.660Z,84.22
2022-10-23T04:47:16.109Z,84.21
2022-10-23T04:49:55.000Z,84.35
2022-10-23T04:52:35.412Z,84.38
2022-10-23T04:55:33.925Z,84.56
2022-10-23T04:58:11.883Z,84.39
2022-10-23T05:00:38.361Z,84.88
2022-10-23T05:03:04.839Z,84.55
2022-10-23T05:05:36.485Z,84.96
2022-10-23T05:08:22.389Z,84.81
2022-10-23T05:11:07.184Z,85.11
2022-10-23T05:13:39.082Z,85.29
2022-10-23T05:16:05.637Z,85.22
2022-10-23T05:18:36.603Z,85.60
2022-10-23T05:21:10.155Z,85.36
2022-10-23T05:23:41.980Z,85.36
2022-10-23T05:26:08.892Z,85.28
2022-10-23T05:28:36.488Z,85.13
2022-10-23T05:31:04.960Z,85.00
2022-10-23T05:33:34.745Z,85.14
2022-10-23T05:36:01.709Z,85.24
2022-10-23T05:38:30.329Z,85.37
2022-10-23T05:40:56.847Z,85.56
2022-10-23T05:43:23.723Z,85.30
2022-10-23T05:45:57.642Z,85.32
2022-10-23T05:48:42.535Z,84.90
2022-10-23T05:51:23.891Z,85.60
2022-10-23T05:54:10.622Z,85.45
2022-10-23T05:56:57.432Z,85.45
2022-10-23T05:59:44.415Z,85.56
2022-10-23T06:02:23.169Z,85.63
2022-10-23T06:04:59.780Z,85.73
2022-10-23T06:07:44.401Z,85.68
2022-10-23T06:10:11.729Z,85.62
2022-10-23T06:12:42.603Z,85.78
2022-10-23T06:15:13.409Z,85.91
2022-10-23T06:17:54.184Z,85.68
2022-10-23T06:20:23.046Z,85.80
2022-10-23T06:23:01.068Z,85.76
2022-10-23T06:25:57.283Z,85.79
2022-10-23T06:28:31.916Z,85.96
2022-10-23T06:30:59.397Z,85.47
2022-10-23T06:33:26.255Z,85.53
2022-10-23T06:35:56.177Z,85.63
2022-10-23T06:38:23.337Z,85.66
2022-10-23T06:40:56.681Z,85.43
2022-10-23T06:43:33.060Z,85.32
2022-10-23T06:46:25.698Z,85.15
2022-10-23T06:49:10.869Z,85.43
2022-10-23T06:51:46.530Z,85.45
2022-10-23T06:54:14.601Z,85.44
2022-10-23T06:56:50.039Z,85.13
2022-10-23T06:59:31.263Z,85.15
2022-10-23T07:01:57.764Z,85.08
2022-10-23T07:04:24.682Z,85.02
2022-10-23T07:06:55.335Z,85.07
2022-10-23T07:09:25.600Z,85.01
2022-10-23T07:11:52.113Z,85.11
2022-10-23T07:14:21.807Z,85.26
2022-10-23T07:16:48.311Z,84.72
2022-10-23T07:19:14.801Z,84.91
2022-10-23T07:21:57.753Z,84.60
2022-10-23T07:24:40.278Z,84.61
2022-10-23T07:27:27.136Z,84.42
2022-10-23T07:29:56.437Z,84.34
2022-10-23T07:32:23.679Z,84.74
2022-10-23T07:35:09.958Z,84.41
2022-10-23T07:37:39.250Z,84.41
2022-10-23T07:40:06.963Z,84.34
2022-10-23T07:42:40.534Z,84.19
2022-10-23T07:45:08.090Z,84.05
2022-10-23T07:47:37.372Z,83.60
2022-10-23T07:50:04.108Z,83.85
2022-10-23T07:52:33.484Z,83.87
2022-10-23T07:55:13.992Z,84.61
2022-10-23T07:57:47.782Z,84.32
2022-10-23T08:00:31.062Z,84.08
2022-10-23T08:03:10.804Z,84.66
2022-10-23T08:05:37.482Z,84.79
2022-10-23T08:08:07.445Z,85.19
2022-10-23T08:10:35.972Z,85.74
2022-10-23T08:13:02.690Z,85.11
2022-10-23T08:15:52.675Z,85.20
2022-10-23T08:18:37.740Z,85.49
2022-10-23T08:21:04.425Z,85.70
2022-10-23T08:23:31.702Z,85.53
2022-10-23T08:26:02.989Z,85.84
2022-10-23T08:28:32.096Z,86.37
2022-10-23T08:31:08.076Z,86.49
2022-10-23T08:33:34.563Z,86.60
2022-10-23T08:36:01.096Z,86.89
2022-10-23T08:38:32.595Z,87.44
2022-10-23T08:40:59.618Z,87.09
2022-10-23T08:43:50.906Z,87.14
2022-10-23T08:46:33.227Z,87.44
2022-10-23T08:49:53.366Z,87.78
2022-10-23T08:52:39.704Z,87.66
2022-10-23T08:55:18.248Z,87.92
2022-10-23T08:58:06.721Z,88.20
2022-10-23T09:00:34.080Z,87.81
2022-10-23T09:03:03.555Z,88.03
2022-10-23T09:05:39.193Z,88.35
2022-10-23T09:08:25.729Z,88.48
2022-10-23T09:11:28.630Z,88.66
2022-10-23T09:14:22.578Z,88.34
2022-10-23T09:16:58.123Z,88.03
2022-10-23T09:19:26.931Z,88.07
2022-10-23T09:21:55.669Z,88.32
2022-10-23T09:24:24.716Z,88.14
2022-10-23T09:26:53.574Z,88.30
2022-10-23T09:29:27.525Z,88.35
2022-10-23T09:31:57.856Z,88.45
2022-10-23T09:34:26.930Z,88.12
2022-10-23T09:36:59.353Z,88.13
2022-10-23T09:39:28.015Z,88.28
2022-10-23T09:41:56.903Z,88.04
2022-10-23T09:44:30.292Z,88.77
2022-10-23T09:47:01.277Z,88.59
2022-10-23T09:49:30.438Z,88.75
2022-10-23T09:52:04.817Z,88.70
2022-10-23T09:54:34.664Z,88.90
2022-10-23T09:57:24.276Z,88.86
2022-10-23T09:59:56.151Z,88.75
2022-10-23T10:02:34.984Z,88.67
2022-10-23T10:05:32.288Z,88.74
2022-10-23T10:08:38.139Z,88.87
2022-10-23T10:11:22.442Z,88.76
2022-10-23T10:13:57.810Z,88.67
2022-10-23T10:16:33.323Z,88.52
2022-10-23T10:19:18.530Z,88.59
2022-10-23T10:22:03.221Z,89.17
2022-10-23T10:24:35.891Z,88.67
2022-10-23T10:27:21.343Z,88.85
2022-10-23T10:30:00.966Z,88.62
2022-10-23T10:32:30.340Z,88.63
2022-10-23T10:35:11.915Z,88.96
2022-10-23T10:38:16.923Z,89.33
2022-10-23T10:40:46.310Z,89.18
2022-10-23T10:43:34.177Z,89.24
2022-10-23T10:46:18.735Z,89.85
2022-10-23T10:48:54.403Z,89.02
2022-10-23T10:51:54.537Z,89.07
2022-10-23T10:54:51.432Z,89.38
2022-10-23T10:57:26.794Z,89.20
2022-10-23T10:59:57.153Z,88.89
2022-10-23T11:02:31.431Z,89.24
2022-10-23T11:05:15.154Z,89.36
2022-10-23T11:08:07.035Z,89.09
2022-10-23T11:10:35.524Z,88.96
2022-10-23T11:13:02.608Z,89.25
2022-10-23T11:15:38.152Z,89.35
2022-10-23T11:18:12.658Z,88.63
2022-10-23T11:20:51.320Z,89.15
2022-10-23T11:23:48.661Z,89.13
2022-10-23T11:26:34.840Z,88.91
2022-10-23T11:29:20.006Z,88.37
2022-10-23T11:32:21.610Z,88.61
2022-10-23T11:35:18.487Z,88.09
2022-10-23T11:37:45.202Z,87.89
2022-10-23T11:40:11.839Z,87.99
2022-10-23T11:42:41.352Z,87.99
2022-10-23T11:45:28.031Z,88.42
2022-10-23T11:48:00.196Z,87.92
2022-10-23T11:50:48.699Z,88.39
2022-10-23T11:53:26.079Z,88.07
2022-10-23T11:56:11.043Z,88.57
2022-10-23T11:58:42.038Z,88.26
2022-10-23T12:01:39.297Z,88.03
2022-10-23T12:04:14.668Z,88.29
2022-10-23T12:06:51.124Z,88.28
2022-10-23T12:09:42.373Z,88.35
2022-10-23T12:12:08.794Z,87.76
2022-10-23T12:14:39.683Z,87.87
2022-10-23T12:17:22.710Z,88.41
2022-10-23T12:20:12.599Z,88.31
2022-10-23T12:23:02.334Z,88.06
2022-10-23T12:26:20.249Z,88.77
2022-10-23T12:29:01.806Z,88.25
2022-10-23T12:31:48.013Z,89.10
2022-10-23T12:34:26.859Z,88.21
2022-10-23T12:37:28.576Z,88.37
2022-10-23T12:39:56.245Z,88.25
2022-10-23T12:42:24.993Z,87.60
2022-10-23T12:45:23.962Z,87.86
2022-10-23T12:47:52.128Z,86.94
2022-10-23T12:50:26.605Z,87.03
2022-10-23T12:53:01.700Z,86.66
2022-10-23T12:55:35.052Z,85.67
2022-10-23T12:58:02.553Z,86.33
2022-10-23T13:00:29.040Z,86.00
2022-10-23T13:03:00.956Z,85.90
2022-10-23T13:05:28.787Z,85.06
2022-10-23T13:07:56.973Z,85.64
2022-10-23T13:10:35.370Z,85.48
2022-10-23T13:13:07.362Z,84.52
2022-10-23T13:15:42.882Z,84.21
2022-10-23T13:18:11.297Z,84.21
2022-10-23T13:20:41.283Z,83.59
2022-10-23T13:23:07.681Z,84.04
2022-10-23T13:25:36.540Z,83.86
2022-10-23T13:28:44.574Z,84.11
2022-10-23T13:31:10.950Z,83.90
2022-10-23T13:33:51.907Z,84.40
2022-10-23T13:36:18.299Z,83.97
2022-10-23T13:38:59.458Z,84.50
2022-10-23T13:41:46.323Z,84.85
2022-10-23T13:44:18.011Z,83.80
2022-10-23T13:46:45.384Z,84.32
2022-10-23T13:49:12.105Z,84.18
2022-10-23T13:51:42.781Z,83.89
2022-10-23T13:54:18.746Z,84.16
2022-10-23T13:56:45.474Z,83.80
2022-10-23T13:59:12.019Z,83.91
2022-10-23T14:01:38.861Z,83.80
2022-10-23T14:04:06.861Z,83.29
2022-10-23T14:06:33.840Z,83.24
2022-10-23T14:09:00.327Z,83.61
2022-10-23T14:11:26.924Z,83.12
2022-10-23T14:13:53.352Z,82.42
2022-10-23T14:16:20.345Z,82.10
2022-10-23T14:18:47.267Z,81.86
2022-10-23T14:21:16.003Z,81.82
2022-10-23T14:23:42.522Z,82.64
2022-10-23T14:26:11.824Z,81.74
2022-10-23T14:28:38.462Z,82.15
2022-10-23T14:31:14.287Z,81.58
2022-10-23T14:33:41.813Z,81.87
2022-10-23T14:36:09.034Z,81.99
2022-10-23T14:38:36.371Z,81.27
2022-10-23T14:41:09.066Z,81.82
2022-10-23T14:43:35.527Z,82.02
2022-10-23T14:46:17.595Z,81.37
2022-10-23T14:48:46.192Z,82.01
2022-10-23T14:51:22.796Z,81.67
2022-10-23T14:53:56.456Z,81.53
2022-10-23T14:56:26.128Z,81.36
2022-10-23T14:58:52.595Z,80.87
2022-10-23T15:01:19.165Z,80.97
2022-10-23T15:03:45.757Z,81.39
2022-10-23T15:06:16.066Z,81.76
2022-10-23T15:08:44.783Z,81.92
2022-10-23T15:11:12.643Z,81.58
2022-10-23T15:13:39.338Z,81.24
2022-10-23T15:16:08.236Z,81.18
2022-10-23T15:18:35.505Z,81.62
2022-10-23T15:21:03.318Z,81.40
2022-10-23T15:23:29.775Z,81.78
2022-10-23T15:26:01.025Z,81.36
2022-10-23T15:28:28.043Z,81.00
2022-10-23T15:30:55.275Z,81.27
2022-10-23T15:33:23.149Z,81.50
2022-10-23T15:35:50.227Z,81.95
2022-10-23T15:38:16.672Z,81.39
2022-10-23T15:40:43.592Z,81.83
2022-10-23T15:43:13.054Z,82.40
2022-10-23T15:45:40.034Z,81.91
2022-10-23T15:48:06.956Z,82.42
2022-10-23T15:50:33.991Z,81.65
2022-10-23T15:53:00.531Z,81.72
2022-10-23T15:55:27.209Z,82.49
2022-10-23T15:57:54.279Z,81.98
2022-10-23T16:00:20.921Z,82.41
2022-10-23T16:02:47.743Z,82.13
2022-10-23T16:05:14.455Z,81.83
2022-10-23T16:07:40.862Z,82.63
2022-10-23T16:10:07.691Z,82.10
2022-10-23T16:12:34.104Z,82.05
2022-10-23T16:15:00.559Z,82.07
2022-10-23T16:17:26.949Z,82.08
2022-10-23T16:19:53.481Z,82.36
2022-10-23T16:22:19.895Z,82.19
2022-10-23T16:24:46.375Z,82.19
2022-10-23T16:27:12.759Z,82.40
2022-10-23T16:29:39.201Z,82.37
2022-10-23T16:32:05.680Z,82.55
2022-10-23T16:34:32.134Z,82.48
2022-10-23T16:36:58.578Z,83.37
2022-10-23T16:39:43.672Z,83.13
2022-10-23T16:42:28.634Z,83.71
2022-10-23T16:45:05.436Z,83.29
2022-10-23T16:47:32.553Z,83.39
2022-10-23T16:49:59.395Z,83.92
2022-10-23T16:52:27.214Z,84.10
2022-10-23T16:54:53.709Z,84.28
2022-10-23T16:57:20.369Z,83.70
2022-10-23T16:59:46.768Z,83.99
2022-10-23T17:02:13.861Z,84.32
2022-10-23T17:04:40.408Z,84.69
2022-10-23T17:07:07.094Z,84.55
2022-10-23T17:09:33.575Z,84.51
2022-10-23T17:12:00.037Z,84.57
2022-10-23T17:14:26.758Z,84.39
2022-10-23T17:16:53.232Z,84.55
2022-10-23T17:22:08.905Z,80.55
2022-10-23T17:24:35.298Z,72.99
2022-10-23T17:27:01.798Z,71.76
2022-10-23T17:29:28.210Z,73.19
2022-10-23T17:31:54.691Z,73.53
2022-10-23T17:34:23.166Z,74.72
2022-10-23T17:36:53.059Z,74.95
2022-10-23T17:39:22.906Z,75.70
2022-10-23T17:41:49.529Z,75.81
2022-10-23T17:44:16.443Z,76.13
2022-10-23T17:46:43.013Z,76.52
2022-10-23T17:49:10.766Z,76.91
2022-10-23T17:51:37.581Z,77.87
2022-10-23T17:54:07.207Z,78.29
2022-10-23T17:56:35.980Z,79.05
2022-10-23T17:59:06.538Z,79.90
2022-10-23T18:01:33.292Z,79.91
2022-10-23T18:04:02.347Z,80.20
2022-10-23T18:06:33.323Z,80.13
2022-10-23T18:09:01.333Z,80.90
2022-10-23T18:11:30.675Z,81.30
2022-10-23T18:16:26.835Z,82.38
2022-10-23T18:18:53.715Z,82.58
2022-10-23T18:21:22.231Z,82.71
2022-10-23T18:23:49.232Z,82.86
2022-10-23T18:26:21.741Z,83.25
2022-10-23T18:28:49.801Z,83.87
2022-10-23T18:31:17.002Z,84.33
2022-10-23T18:33:43.613Z,84.28
2022-10-23T18:36:20.830Z,84.62
2022-10-23T18:38:48.334Z,85.11
2022-10-23T18:41:18.604Z,84.98
2022-10-23T18:43:45.788Z,85.54
2022-10-23T18:46:13.529Z,85.40
2022-10-23T18:48:40.404Z,85.46
2022-10-23T18:51:19.203Z,85.35
2022-10-23T18:53:45.701Z,85.31
2022-10-23T18:56:13.578Z,85.03
2022-10-23T18:58:40.209Z,85.75
2022-10-23T19:01:06.829Z,85.13
2022-10-23T19:03:33.388Z,85.78
2022-10-23T19:05:59.862Z,84.96
2022-10-23T19:08:26.369Z,85.26
2022-10-23T19:10:53.620Z,84.82
2022-10-23T19:13:20.061Z,85.30
2022-10-23T19:15:46.477Z,85.68
2022-10-23T19:18:12.919Z,85.54
2022-10-23T19:20:43.062Z,85.78
2022-10-23T19:23:12.725Z,85.48
2022-10-23T19:25:43.365Z,85.55
2022-10-23T19:28:09.821Z,85.43
2022-10-23T19:30:36.661Z,85.83
2022-10-23T19:33:03.140Z,85.86
2022-10-23T19:35:29.621Z,85.97
2022-10-23T19:37:56.051Z,86.04
2022-10-23T19:40:22.543Z,86.65
2022-10-23T19:42:48.915Z,86.31
2022-10-23T19:45:15.749Z,86.61
2022-10-23T19:47:42.666Z,87.28
2022-10-23T19:50:10.339Z,87.43
2022-10-23T19:52:37.313Z,87.24
2022-10-23T19:55:05.851Z,87.46
2022-10-23T19:57:33.151Z,87.62
2022-10-23T20:00:00.371Z,87.50
2022-10-23T20:02:27.609Z,87.04
2022-10-23T20:04:54.109Z,87.77
2022-10-23T20:07:20.597Z,87.57
2022-10-23T20:09:47.026Z,87.31
2022-10-23T20:12:13.463Z,87.54
2022-10-23T20:14:39.874Z,87.51
2022-10-23T20:17:06.571Z,87.32
2022-10-23T20:19:32.985Z,87.20
2022-10-23T20:21:59.399Z,87.38
2022-10-23T20:24:25.817Z,87.28
2022-10-23T20:26:55.067Z,86.81
2022-10-23T20:29:22.683Z,87.20
2022-10-23T20:31:49.158Z,87.07
2022-10-23T20:34:15.577Z,86.88
2022-10-23T20:36:47.271Z,86.90
2022-10-23T20:39:17.400Z,86.55
2022-10-23T20:41:43.983Z,86.47
2022-10-23T20:44:14.081Z,87.08
2022-10-23T20:46:40.824Z,87.02
2022-10-23T20:49:07.532Z,86.86
2022-10-23T20:51:34.150Z,86.89
2022-10-23T20:54:00.538Z,86.50
2022-10-23T20:56:29.989Z,86.54
2022-10-23T20:59:01.679Z,86.88
2022-10-23T21:01:29.300Z,86.35
2022-10-23T21:03:57.244Z,86.87
2022-10-23T21:06:25.280Z,86.75
2022-10-23T21:08:56.718Z,86.64
2022-10-23T21:11:23.229Z,86.69
2022-10-23T21:13:49.696Z,86.91
2022-10-23T21:16:28.732Z,87.13
2022-10-23T21:18:56.676Z,87.06
2022-10-23T21:21:24.092Z,86.68
2022-10-23T21:23:52.475Z,87.09
2022-10-23T21:26:21.703Z,87.34
2022-10-23T21:28:56.196Z,87.32
2022-10-23T21:31:27.956Z,86.99
2022-10-23T21:33:54.368Z,87.32
2022-10-23T21:36:23.021Z,87.19
2022-10-23T21:38:50.989Z,87.28
2022-10-23T21:41:30.583Z,87.59
2022-10-23T21:44:00.409Z,87.49
2022-10-23T21:46:29.359Z,87.46
2022-10-23T21:48:55.970Z,87.03
2022-10-23T21:51:25.191Z,87.33
2022-10-23T21:53:53.469Z,86.91
2022-10-23T21:56:27.100Z,87.33
2022-10-23T21:58:53.813Z,87.49
2022-10-23T22:01:20.688Z,87.70
2022-10-23T22:03:47.406Z,87.04
2022-10-23T22:06:19.981Z,87.57
2022-10-23T22:08:46.790Z,87.78
2022-10-23T22:11:14.234Z,87.61
2022-10-23T22:13:42.050Z,87.78
2022-10-23T22:16:08.935Z,87.86
2022-10-23T22:18:36.968Z,87.79
2022-10-23T22:21:08.769Z,87.69
2022-10-23T22:23:35.685Z,87.99
2022-10-23T22:26:22.012Z,88.27
2022-10-23T22:28:49.373Z,88.01
2022-10-23T22:31:17.687Z,88.52
2022-10-23T22:33:44.157Z,88.11
2022-10-23T22:36:10.608Z,88.17
2022-10-23T22:38:37.346Z,88.34
2022-10-23T22:41:04.437Z,88.58
2022-10-23T22:43:31.144Z,88.30
2022-10-23T22:46:10.620Z,88.57
2022-10-23T22:48:37.698Z,88.46
2022-10-23T22:51:07.301Z,88.42
2022-10-23T22:53:35.438Z,89.41
2022-10-23T22:56:06.238Z,88.89
2022-10-23T22:58:32.749Z,88.54
2022-10-23T23:01:21.432Z,88.78
2022-10-23T23:03:48.716Z,88.78
2022-10-23T23:06:15.360Z,88.43
2022-10-23T23:08:42.835Z,88.79
2022-10-23T23:11:12.608Z,88.82
2022-10-23T23:13:40.589Z,88.29
2022-10-23T23:16:07.632Z,87.84
2022-10-23T23:18:35.023Z,88.72
2022-10-23T23:21:02.915Z,88.59
2022-10-23T23:23:29.597Z,88.43
2022-10-23T23:25:56.554Z,88.31
2022-10-23T23:28:23.012Z,88.60
2022-10-23T23:30:49.445Z,88.23
2022-10-23T23:33:17.475Z,88.40
2022-10-23T23:35:45.775Z,88.47
2022-10-23T23:38:13.125Z,88.65
2022-10-23T23:40:39.906Z,89.01
2022-10-23T23:43:06.628Z,89.13
2022-10-23T23:45:33.099Z,89.15
2022-10-23T23:47:59.629Z,88.60
2022-10-23T23:50:26.246Z,88.98
2022-10-23T23:52:52.681Z,88.72
2022-10-23T23:55:19.236Z,88.70
2022-10-23T23:57:46.061Z,88.94
